Terminal Aerodrome Forecast
Issued by NWS

Home | Current Version | Previous Version | Text Only | Print | Product List | Glossary Off
Versions: 1 2 3 4 5 6 7 8 9 10 11 12 13 14 15 16

174
FTUS43 KMPX 201715 AAC
TAFRNH
TAF AMD
KRNH 201715Z 2017/2112 33010KT P6SM OVC014
      TEMPO 2017/2019 3SM BR BKN007
     FM202100 32012G20KT P6SM BKN020
     FM210000 34012KT P6SM BKN035
     FM210500 33006KT P6SM SCT035=

USA.gov is the U.S. government's official web portal to all federal, state and local government web resources and services.